KRGK

Red Wing Regional Airport

Red Wing, Minnesota, USA
METAR KRGK 181956Z AUTO 03004KT 1SM -SN BKN015 OVC023 M11/M17 A3023 RMK AO2
Observed Flight Rules
Jan-18 @ 19:56 UTC (10 minutes ago) Instrument Flight Rules
Wind Visibility Clouds Conditions
30° at 4 knots 1 miles
  • Broken at 1,500' AGL
  • Overcast at 2,300' AGL
  • Light Snow
Temperatures Readings
Current -11°C / 12°F
Dewpoint -17°C / 1°F
Humidity 62%
Altimeter 30.23" Hg
Pressure 1023.72 hPa
Elevation 239
METAR KRGK 181956Z AUTO 03004KT 1SM -SN BKN015 OVC023 M11/M17 A3023 RMK AO2
Observed Flight Rules
Jan-18 @ 19:56 UTC
(10 minutes ago)
IFR
Wind Visibility
30° at 4 knots 1 miles
Clouds
  • Broken at 1,500' AGL
  • Overcast at 2,300' AGL
Conditions
  • Light Snow
Temperature Dewpoint
-11°C / 12°F -17°C / 1°F
Humidity Altimeter Pressure
62% 30.23" Hg 1023.72 hPa